Time;durP1;ratioP1;P1;durP2;ratioP2;P2;SDS_P1;SDS_P2;PMS_P1;PMS_P2;Temp;Humidity;BMP_temperature;BMP_pressure;BME280_temperature;BME280_humidity;BME280_pressure;Samples;Min_cycle;Max_cycle;Signal;HPM_P1;HPM_P2
2022/10/26 00:00:45;;;;;;;6.53;4.40;;;12.10;99.90;;;;;;4882325;29;20181;-87
2022/10/26 00:03:13;;;;;;;7.10;4.50;;;;;;;;;;4882200;29;20184;-86
2022/10/26 00:05:39;;;;;;;13.75;5.57;;;12.20;99.90;;;;;;4881998;29;20280;-87
2022/10/26 00:08:14;;;;;;;7.75;5.00;;;12.10;99.90;;;;;;4881956;29;20273;-87
2022/10/26 00:10:40;;;;;;;10.43;5.15;;;;;;;;;;4899001;29;20208;-87
2022/10/26 00:13:11;;;;;;;9.55;4.63;;;12.10;99.90;;;;;;4881791;29;20193;-87
2022/10/26 00:15:40;;;;;;;8.82;5.32;;;12.60;99.90;;;;;;4882304;29;20214;-86
2022/10/26 00:18:06;;;;;;;8.98;5.47;;;12.40;99.90;;;;;;4881695;29;20185;-86
2022/10/26 00:20:32;;;;;;;6.75;4.38;;;;;;;;;;4882086;29;20631;-86
2022/10/26 00:22:59;;;;;;;8.52;4.72;;;12.10;99.90;;;;;;4881304;29;20571;-86
2022/10/26 00:25:25;;;;;;;12.85;5.45;;;12.00;99.90;;;;;;4866665;29;20246;-86
2022/10/26 00:27:51;;;;;;;8.20;5.35;;;;;;;;;;4881815;29;20551;-86
2022/10/26 00:30:16;;;;;;;7.28;4.82;;;12.00;99.90;;;;;;4881181;29;20240;-86
2022/10/26 00:32:42;;;;;;;6.93;4.88;;;12.10;99.90;;;;;;4881536;29;20184;-86
2022/10/26 00:35:08;;;;;;;10.88;5.15;;;12.00;99.90;;;;;;4881571;29;20624;-86
2022/10/26 00:37:34;;;;;;;9.18;5.32;;;;;;;;;;4898590;29;20264;-86
2022/10/26 00:40:02;;;;;;;7.40;4.45;;;12.00;99.90;;;;;;4881081;29;20197;-86
2022/10/26 00:42:28;;;;;;;7.20;4.55;;;;;;;;;;4898102;29;20237;-86
2022/10/26 00:45:00;;;;;;;9.82;5.10;;;13.00;99.90;;;;;;4881571;29;20209;-88
2022/10/26 00:47:41;;;;;;;6.88;4.68;;;12.00;99.90;;;;;;4898610;29;20189;-86
2022/10/26 00:50:14;;;;;;;9.05;5.53;;;11.90;99.90;;;;;;4881472;29;20276;-87
2022/10/26 00:52:40;;;;;;;11.70;4.72;;;11.90;99.90;;;;;;4881692;29;20216;-87
2022/10/26 00:55:07;;;;;;;8.02;4.80;;;11.90;99.90;;;;;;4881055;29;20527;-88
2022/10/26 00:57:35;;;;;;;8.57;5.00;;;11.80;99.90;;;;;;4881390;29;20188;-87
2022/10/26 01:00:01;;;;;;;7.70;4.70;;;11.90;99.90;;;;;;4881583;29;20185;-87
2022/10/26 01:02:27;;;;;;;7.43;4.72;;;11.30;99.90;;;;;;4883487;29;20191;-87
2022/10/26 01:04:54;;;;;;;9.95;5.10;;;11.80;99.90;;;;;;4901222;29;20208;-87
2022/10/26 01:07:21;;;;;;;8.48;4.90;;;12.10;99.90;;;;;;4885057;29;20196;-87
2022/10/26 01:09:49;;;;;;;8.18;4.80;;;11.90;99.90;;;;;;4901000;29;20184;-87
2022/10/26 01:12:18;;;;;;;7.35;4.85;;;11.70;99.90;;;;;;4885094;29;20220;-88
2022/10/26 01:14:44;;;;;;;8.55;4.60;;;12.10;99.90;;;;;;4885132;29;20192;-87
2022/10/26 01:17:35;;;;;;;10.85;4.78;;;11.80;99.90;;;;;;4885132;29;20181;-86
2022/10/26 01:20:32;;;;;;;8.93;4.80;;;11.80;99.90;;;;;;4884701;29;20185;-87
2022/10/26 01:23:27;;;;;;;9.25;4.85;;;11.70;99.90;;;;;;4885107;29;20631;-87
2022/10/26 01:25:55;;;;;;;7.72;4.45;;;11.80;99.90;;;;;;4885164;29;20228;-86
2022/10/26 01:29:04;;;;;;;9.65;4.47;;;11.80;99.90;;;;;;4901733;29;20627;-87
2022/10/26 01:31:49;;;;;;;10.30;5.30;;;11.80;99.90;;;;;;4898453;29;20321;-88
2022/10/26 01:34:29;;;;;;;7.15;4.30;;;11.80;99.90;;;;;;4908749;29;20180;-87
2022/10/26 01:37:04;;;;;;;9.77;4.57;;;11.80;99.90;;;;;;4886279;29;20288;-87
2022/10/26 01:39:43;;;;;;;14.43;5.38;;;11.80;99.90;;;;;;4902092;29;20165;-86
2022/10/26 01:42:11;;;;;;;7.63;4.63;;;11.80;99.90;;;;;;4886502;29;20181;-87
2022/10/26 01:45:03;;;;;;;10.23;5.68;;;10.20;99.90;;;;;;4884756;29;20296;-86
2022/10/26 01:47:31;;;;;;;11.73;5.38;;;11.90;99.90;;;;;;4884768;29;20191;-87
2022/10/26 01:49:59;;;;;;;9.73;4.70;;;11.90;99.90;;;;;;4884833;29;20665;-87
2022/10/26 01:52:25;;;;;;;9.30;4.38;;;11.90;99.90;;;;;;4884646;29;20196;-86
2022/10/26 01:54:51;;;;;;;8.90;4.63;;;;;;;;;;4884104;29;20189;-87
2022/10/26 01:57:20;;;;;;;7.47;4.72;;;11.90;99.90;;;;;;4884005;29;20252;-87
2022/10/26 02:00:08;;;;;;;8.02;4.05;;;11.70;99.90;;;;;;4884295;29;20222;-88
2022/10/26 02:02:53;;;;;;;12.48;4.57;;;11.90;99.90;;;;;;4884154;29;20173;-87
2022/10/26 02:05:55;;;;;;;8.20;4.15;;;11.80;99.90;;;;;;4900819;29;20204;-87
2022/10/26 02:08:30;;;;;;;7.80;4.32;;;11.80;99.90;;;;;;4900199;29;20185;-86
2022/10/26 02:11:23;;;;;;;6.78;4.28;;;11.80;99.90;;;;;;4884003;29;20180;-87
2022/10/26 02:14:07;;;;;;;6.93;4.82;;;11.80;99.90;;;;;;4883455;29;20670;-87
2022/10/26 02:16:53;;;;;;;7.00;4.15;;;11.80;99.90;;;;;;4883677;29;20616;-88
2022/10/26 02:19:37;;;;;;;7.05;4.40;;;11.70;99.90;;;;;;4883831;29;20185;-86
2022/10/26 02:22:10;;;;;;;8.02;4.25;;;11.80;99.90;;;;;;4883544;29;20661;-86
2022/10/26 02:24:38;;;;;;;7.53;4.70;;;11.90;99.90;;;;;;4883291;29;20212;-87
2022/10/26 02:27:11;;;;;;;10.38;4.22;;;11.80;99.90;;;;;;4882811;29;20316;-85
2022/10/26 02:29:40;;;;;;;9.75;5.05;;;11.80;99.90;;;;;;4899852;29;20193;-87
2022/10/26 02:32:10;;;;;;;9.80;5.13;;;12.00;99.90;;;;;;4882688;29;20232;-86
2022/10/26 02:34:38;;;;;;;11.23;4.63;;;11.80;99.90;;;;;;4883108;29;20200;-86
2022/10/26 02:37:05;;;;;;;6.13;3.85;;;11.80;99.90;;;;;;4898696;29;20189;-86
2022/10/26 02:39:35;;;;;;;8.77;4.80;;;11.70;99.90;;;;;;4883691;29;20177;-86
2022/10/26 02:42:03;;;;;;;6.75;3.88;;;11.70;99.90;;;;;;4883560;29;20543;-86
2022/10/26 02:44:39;;;;;;;6.50;4.38;;;11.70;99.90;;;;;;4883382;29;20213;-86
2022/10/26 02:47:04;;;;;;;5.68;3.92;;;11.70;99.90;;;;;;4883515;29;20587;-86
2022/10/26 02:49:30;;;;;;;11.88;4.47;;;11.60;99.90;;;;;;4883339;29;20185;-87
2022/10/26 02:52:34;;;;;;;7.70;4.55;;;11.60;99.90;;;;;;4883291;29;20205;-87
2022/10/26 02:55:08;;;;;;;7.93;4.90;;;11.60;99.90;;;;;;4883515;29;20189;-87
2022/10/26 02:57:40;;;;;;;9.35;4.07;;;11.60;99.90;;;;;;4900041;29;20177;-87
2022/10/26 03:00:09;;;;;;;9.10;3.90;;;11.60;99.90;;;;;;4899972;29;20172;-87
2022/10/26 03:02:35;;;;;;;5.60;4.05;;;11.60;99.90;;;;;;4883052;29;20196;-86
2022/10/26 03:05:24;;;;;;;17.95;4.15;;;11.60;99.90;;;;;;4883318;29;20205;-86
2022/10/26 03:07:50;;;;;;;8.67;4.47;;;11.60;99.90;;;;;;4900470;29;20173;-87
2022/10/26 03:10:16;;;;;;;8.95;5.13;;;11.60;99.90;;;;;;4882765;29;20181;-87
2022/10/26 03:12:42;;;;;;;14.85;4.90;;;11.60;99.90;;;;;;4883289;29;20638;-88
2022/10/26 03:15:08;;;;;;;13.25;5.60;;;11.60;99.90;;;;;;4899972;29;20173;-87
2022/10/26 03:17:34;;;;;;;10.60;4.68;;;11.60;99.90;;;;;;4867700;29;20205;-87
2022/10/26 03:20:02;;;;;;;9.93;5.30;;;;;;;;;;4883333;29;20182;-86
2022/10/26 03:22:28;;;;;;;12.27;5.25;;;11.60;99.90;;;;;;4882908;29;20185;-87
2022/10/26 03:24:54;;;;;;;7.65;5.57;;;;;;;;;;4882137;29;20563;-87
2022/10/26 03:27:20;;;;;;;8.93;5.38;;;11.60;99.90;;;;;;4899437;29;20200;-87
2022/10/26 03:29:46;;;;;;;8.48;4.50;;;11.60;99.90;;;;;;4867955;29;20177;-87
2022/10/26 03:32:14;;;;;;;8.37;4.53;;;;;;;;;;4882767;29;20241;-86
2022/10/26 03:34:42;;;;;;;8.40;5.00;;;11.60;99.90;;;;;;4882660;29;20196;-88
2022/10/26 03:37:10;;;;;;;7.35;4.20;;;11.50;99.90;;;;;;4883025;29;20195;-86
2022/10/26 03:39:36;;;;;;;9.00;4.55;;;;;;;;;;4882598;29;20241;-86
2022/10/26 03:42:02;;;;;;;10.18;5.40;;;11.50;99.90;;;;;;4899211;29;20189;-86
2022/10/26 03:44:28;;;;;;;7.07;4.50;;;;;;;;;;4882402;29;20228;-87
2022/10/26 03:46:54;;;;;;;10.20;5.13;;;11.60;99.90;;;;;;4882556;29;20247;-87
2022/10/26 03:49:20;;;;;;;7.93;4.22;;;12.10;99.90;;;;;;4882454;29;20227;-88
2022/10/26 03:51:46;;;;;;;6.28;4.03;;;;;;;;;;4882635;29;20620;-87
2022/10/26 03:54:11;;;;;;;8.23;4.60;;;11.40;99.90;;;;;;4882563;29;20192;-87
2022/10/26 03:56:37;;;;;;;16.40;4.93;;;11.50;99.90;;;;;;4882656;29;20542;-87
2022/10/26 03:59:03;;;;;;;8.38;4.68;;;9.00;99.90;;;;;;4882479;29;20181;-87
2022/10/26 04:01:29;;;;;;;10.93;4.57;;;;;;;;;;4882396;29;20185;-86
2022/10/26 04:03:55;;;;;;;7.70;5.00;;;11.40;99.90;;;;;;4882518;29;20225;-86
2022/10/26 04:06:23;;;;;;;5.38;3.50;;;11.40;99.90;;;;;;4877942;29;20254;-87
2022/10/26 04:08:48;;;;;;;6.18;4.20;;;11.40;99.90;;;;;;4905907;29;20172;-86
2022/10/26 04:11:14;;;;;;;7.72;4.40;;;;;;;;;;4906014;29;20252;-86
2022/10/26 04:13:40;;;;;;;7.78;4.72;;;11.10;99.90;;;;;;4906737;29;20181;-87
2022/10/26 04:16:06;;;;;;;9.25;4.38;;;11.40;99.90;;;;;;4906897;29;20232;-88
2022/10/26 04:18:32;;;;;;;9.43;4.15;;;;;;;;;;4922167;29;20181;-87
2022/10/26 04:21:01;;;;;;;7.13;4.30;;;11.30;99.90;;;;;;4907184;29;20192;-87
2022/10/26 04:23:27;;;;;;;8.10;4.43;;;11.30;99.90;;;;;;4891482;29;20177;-90
2022/10/26 04:25:53;;;;;;;11.70;5.15;;;;;;;;;;4906489;29;20193;-86
2022/10/26 04:28:19;;;;;;;6.55;4.60;;;11.00;99.90;;;;;;4906668;29;20193;-86
2022/10/26 04:30:46;;;;;;;7.38;4.88;;;11.20;99.90;;;;;;4890873;29;20229;-89
2022/10/26 04:33:12;;;;;;;8.27;4.47;;;;;;;;;;4906528;29;20162;-87
2022/10/26 04:35:38;;;;;;;9.30;4.88;;;11.20;99.90;;;;;;4906184;29;20213;-89
2022/10/26 04:38:06;;;;;;;9.43;5.00;;;11.20;99.90;;;;;;4890727;29;20181;-88
2022/10/26 04:40:33;;;;;;;10.20;5.70;;;11.10;99.90;;;;;;4898861;29;20191;-88
2022/10/26 04:42:59;;;;;;;9.98;5.28;;;;;;;;;;4921482;29;20200;-86
2022/10/26 04:45:29;;;;;;;9.65;5.22;;;11.20;99.90;;;;;;4904976;29;20205;-90
2022/10/26 04:48:05;;;;;;;13.67;6.67;;;11.10;99.90;;;;;;4885845;29;20184;-89
2022/10/26 04:50:33;;;;;;;9.23;5.97;;;;;;;;;;4883464;29;20287;-88
2022/10/26 04:53:02;;;;;;;11.45;5.90;;;11.10;99.90;;;;;;4883006;29;20185;-88
2022/10/26 04:55:30;;;;;;;11.30;6.15;;;;;;;;;;4900207;29;20188;-87
2022/10/26 04:57:56;;;;;;;13.65;6.07;;;;;;;;;;4883284;29;20275;-87
2022/10/26 05:00:22;;;;;;;16.30;6.47;;;11.10;99.90;;;;;;4885229;29;20189;-88
2022/10/26 05:02:48;;;;;;;11.80;5.45;;;;;;;;;;4904009;29;20181;-89
2022/10/26 05:05:14;;;;;;;11.60;6.13;;;11.10;99.90;;;;;;4882728;29;20697;-88
2022/10/26 05:07:40;;;;;;;10.32;5.43;;;11.20;99.90;;;;;;4866908;29;20206;-88
2022/10/26 05:10:06;;;;;;;12.77;6.30;;;11.10;99.90;;;;;;4884265;29;20181;-88
2022/10/26 05:12:40;;;;;;;16.58;7.90;;;;;;;;;;4883674;29;20521;-88
2022/10/26 05:15:06;;;;;;;18.60;6.80;;;;;;;;;;4900573;29;20169;-89
2022/10/26 05:17:35;;;;;;;13.02;6.35;;;11.30;99.90;;;;;;4882712;29;20181;-89
2022/10/26 05:22:57;;;;;;;11.07;6.55;;;11.30;99.90;;;;;;4898757;29;20196;-87
2022/10/26 05:25:24;;;;;;;15.60;7.90;;;11.20;99.90;;;;;;4880967;29;20208;-90
2022/10/26 05:28:02;;;;;;;14.25;8.18;;;11.20;99.90;;;;;;4881346;29;20197;-90
2022/10/26 05:30:37;;;;;;;12.68;7.45;;;11.20;99.90;;;;;;4898368;29;20221;-90
2022/10/26 05:33:02;;;;;;;16.60;6.38;;;11.10;99.90;;;;;;4896152;29;20214;-90
2022/10/26 05:35:29;;;;;;;14.23;6.55;;;11.20;99.90;;;;;;4880928;29;20189;-89
2022/10/26 05:37:57;;;;;;;17.33;8.35;;;;;;;;;;4881152;29;20177;-90
2022/10/26 05:40:24;;;;;;;14.68;8.10;;;;;;;;;;4881077;29;20185;-89
2022/10/26 05:42:50;;;;;;;21.23;7.43;;;11.00;99.90;;;;;;4881043;29;20758;-90
2022/10/26 05:45:19;;;;;;;13.85;6.78;;;11.50;99.90;;;;;;4880904;29;20220;-90
2022/10/26 05:47:45;;;;;;;12.40;7.22;;;11.40;99.90;;;;;;4866322;29;20192;-89
2022/10/26 05:50:11;;;;;;;13.38;7.35;;;;;;;;;;4883989;29;20185;-89
2022/10/26 05:52:48;;;;;;;17.38;7.22;;;11.20;99.90;;;;;;4883794;29;20286;-91
2022/10/26 05:55:18;;;;;;;14.05;7.18;;;11.20;99.90;;;;;;4884912;29;20224;-92
2022/10/26 05:57:45;;;;;;;16.85;7.20;;;;;;;;;;4885568;29;20177;-91
2022/10/26 06:00:22;;;;;;;16.00;8.38;;;11.30;99.90;;;;;;4883603;29;20189;-91
2022/10/26 06:03:19;;;;;;;18.58;7.25;;;11.30;99.90;;;;;;4885992;29;20258;-90
2022/10/26 06:05:56;;;;;;;25.63;7.70;;;11.40;99.90;;;;;;4884458;29;20208;-90
2022/10/26 06:08:24;;;;;;;14.27;7.43;;;11.20;99.90;;;;;;4884603;29;20698;-89
2022/10/26 06:10:52;;;;;;;12.15;6.57;;;11.20;99.90;;;;;;4884108;29;20611;-89
2022/10/26 06:13:19;;;;;;;16.08;6.65;;;11.20;99.90;;;;;;4884128;29;20582;-89
2022/10/26 06:16:00;;;;;;;18.60;7.28;;;12.30;99.90;;;;;;4883397;29;20237;-88
2022/10/26 06:18:54;;;;;;;20.08;7.60;;;11.30;99.90;;;;;;4883245;29;20209;-88
2022/10/26 06:21:47;;;;;;;22.75;8.32;;;11.20;99.90;;;;;;4883065;29;20212;-87
2022/10/26 06:24:30;;;;;;;16.88;6.72;;;11.20;99.90;;;;;;4900353;29;20201;-86
2022/10/26 06:27:42;;;;;;;15.70;7.25;;;11.20;99.90;;;;;;4900316;29;20176;-89
2022/10/26 06:30:10;;;;;;;20.50;7.80;;;11.20;99.90;;;;;;4872231;29;20196;-89
2022/10/26 06:32:52;;;;;;;19.88;7.82;;;11.20;99.90;;;;;;4885585;29;20229;-90
2022/10/26 06:35:49;;;;;;;25.58;8.55;;;11.30;99.90;;;;;;4885254;29;20207;-89
2022/10/26 06:38:22;;;;;;;21.02;8.60;;;11.30;99.90;;;;;;4894098;29;20193;-92
2022/10/26 06:40:55;;;;;;;17.83;8.15;;;11.30;99.90;;;;;;4890479;29;20181;-90
2022/10/26 06:47:01;;;;;;;19.30;8.15;;;11.30;99.90;;;;;;4893931;29;20653;-92
2022/10/26 06:49:35;;;;;;;13.85;7.03;;;11.30;99.90;;;;;;4894231;29;20285;-91
2022/10/26 06:52:27;;;;;;;21.05;7.43;;;11.30;99.90;;;;;;4893498;29;20189;-94
2022/10/26 06:55:05;;;;;;;15.98;8.20;;;11.20;99.90;;;;;;4887949;29;20193;-93
2022/10/26 06:57:38;;;;;;;19.67;8.80;;;11.10;99.90;;;;;;4884889;29;20193;-93
2022/10/26 07:00:28;;;;;;;;;;;;;;;;;;;;;
2022/10/26 07:02:59;;;;;;;21.60;8.25;;;11.20;99.90;;;;;;4901665;29;20181;-92
2022/10/26 07:05:25;;;;;;;19.25;7.47;;;;;;;;;;4886100;29;20224;-92
2022/10/26 07:10:41;;;;;;;28.70;8.60;;;;;;;;;;4909944;29;20194;-92
2022/10/26 07:13:12;;;;;;;20.35;9.25;;;11.40;99.90;;;;;;4890143;29;20261;-92
2022/10/26 07:15:43;;;;;;;18.20;7.88;;;11.40;99.90;;;;;;4874967;29;20213;-91
2022/10/26 07:18:10;;;;;;;18.75;7.47;;;;;;;;;;4892921;29;20189;-90
2022/10/26 07:20:44;;;;;;;15.80;7.47;;;12.80;99.90;;;;;;4890005;29;20185;-92
2022/10/26 07:23:10;;;;;;;15.88;7.57;;;;;;;;;;4860555;29;20189;-91
2022/10/26 07:29:18;;;;;;;15.43;6.78;;;11.70;99.90;;;;;;4822001;29;20194;-91
2022/10/26 07:35:09;;;;;;;18.10;6.75;;;;;;;;;;4830338;29;20220;-89
2022/10/26 07:37:37;;;;;;;22.65;8.35;;;;;;;;;;4832616;29;20657;-92
2022/10/26 07:40:06;;;;;;;15.27;7.10;;;11.50;99.90;;;;;;4864819;29;20205;-90
2022/10/26 07:42:35;;;;;;;18.35;7.80;;;11.50;99.90;;;;;;4905004;29;20181;-91
2022/10/26 07:45:18;;;;;;;;;;;;;;;;;;;;;
2022/10/26 07:47:51;;;;;;;15.98;7.47;;;11.50;99.90;;;;;;4911239;29;20189;-88
2022/10/26 07:50:35;;;;;;;15.80;6.95;;;11.40;99.90;;;;;;4887791;29;20188;-90
2022/10/26 07:53:03;;;;;;;11.40;6.70;;;;;;;;;;4885943;29;20192;-90
2022/10/26 07:55:31;;;;;;;12.32;6.38;;;11.40;99.90;;;;;;4885766;29;20190;-92
2022/10/26 07:58:04;;;;;;;13.10;6.03;;;;;;;;;;4869276;29;20196;-94
2022/10/26 08:00:33;;;;;;;15.60;5.95;;;;;;;;;;4886333;29;20227;-92
2022/10/26 08:03:22;;;;;;;15.73;6.43;;;11.40;99.90;;;;;;4886514;29;20213;-92
2022/10/26 08:06:04;;;;;;;15.63;6.35;;;11.40;99.90;;;;;;4855746;29;20201;-94
2022/10/26 08:08:33;;;;;;;10.73;5.78;;;11.40;99.90;;;;;;4884452;29;20185;-91
2022/10/26 08:11:31;;;;;;;8.45;5.20;;;11.40;99.90;;;;;;4870896;29;20193;-90
2022/10/26 08:14:00;;;;;;;11.02;5.18;;;11.40;99.90;;;;;;4875316;29;20207;-93
2022/10/26 08:16:33;;;;;;;10.30;5.90;;;11.40;99.90;;;;;;4867807;29;20213;-92
2022/10/26 08:19:01;;;;;;;10.23;5.90;;;;;;;;;;4899840;29;20170;-92
2022/10/26 08:21:35;;;;;;;13.38;5.95;;;;;;;;;;4888010;29;20188;-89
2022/10/26 08:24:01;;;;;;;14.95;6.68;;;;;;;;;;4891132;29;20304;-89
2022/10/26 08:26:27;;;;;;;11.40;5.43;;;11.60;99.90;;;;;;4886210;29;20248;-87
2022/10/26 08:29:05;;;;;;;17.13;6.30;;;12.00;99.90;;;;;;4867576;29;20596;-89
2022/10/26 08:31:31;;;;;;;15.77;6.85;;;;;;;;;;4885918;29;20237;-89
2022/10/26 08:33:58;;;;;;;9.40;5.43;;;;;;;;;;4884351;29;20200;-89
2022/10/26 08:36:34;;;;;;;14.68;6.40;;;11.90;99.90;;;;;;4883016;29;20185;-91
2022/10/26 08:39:00;;;;;;;10.48;5.03;;;;;;;;;;4883028;29;20185;-90
2022/10/26 08:41:53;;;;;;;12.77;6.05;;;12.00;99.90;;;;;;4883527;29;20181;-92
2022/10/26 08:44:36;;;;;;;11.15;6.50;;;12.00;99.90;;;;;;4905914;29;20201;-91
2022/10/26 08:50:37;;;;;;;10.65;5.10;;;12.10;99.90;;;;;;4827209;29;20231;-89
2022/10/26 08:53:27;;;;;;;8.43;5.22;;;12.10;99.90;;;;;;4894815;29;20176;-92
2022/10/26 08:56:16;;;;;;;13.70;6.25;;;12.20;99.90;;;;;;4896244;29;20323;-93
2022/10/26 08:59:07;;;;;;;;;;;;;;;;;;;;;
2022/10/26 09:01:40;;;;;;;13.55;5.90;;;12.20;99.90;;;;;;4907889;29;20221;-91
2022/10/26 09:04:29;;;;;;;9.98;5.30;;;12.20;99.90;;;;;;4875974;29;20240;-91
2022/10/26 09:07:24;;;;;;;13.27;5.35;;;12.20;99.90;;;;;;4905658;29;20233;-89
2022/10/26 09:10:40;;;;;;;10.57;4.38;;;12.20;99.90;;;;;;4885964;29;20185;-90
2022/10/26 09:13:27;;;;;;;9.05;4.50;;;12.30;99.90;;;;;;4888970;29;20205;-91
2022/10/26 09:16:16;;;;;;;11.82;5.25;;;12.40;99.90;;;;;;4893649;29;20196;-91
2022/10/26 09:19:01;;;;;;;;;;;;;;;;;;;;;
2022/10/26 09:21:36;;;;;;;15.18;5.75;;;12.50;99.90;;;;;;4905777;29;20264;-89
2022/10/26 09:24:25;;;;;;;11.63;5.97;;;12.70;99.90;;;;;;4887153;29;20216;-91
2022/10/26 09:27:30;;;;;;;12.70;5.18;;;12.40;99.90;;;;;;4893219;29;20209;-89
2022/10/26 09:30:09;;;;;;;17.80;4.88;;;12.40;99.90;;;;;;4886668;29;20571;-91
2022/10/26 09:32:50;;;;;;;11.45;6.00;;;12.40;99.90;;;;;;4890869;29;20220;-92
2022/10/26 09:35:28;;;;;;;15.50;5.35;;;12.40;99.90;;;;;;4890505;29;20181;-90
2022/10/26 09:38:05;;;;;;;14.40;6.18;;;13.00;99.90;;;;;;4890797;29;20195;-90
2022/10/26 09:47:35;;;;;;;16.60;5.82;;;12.30;99.90;;;;;;4813978;29;20446;-91
2022/10/26 09:50:20;;;;;;;9.52;5.53;;;12.30;99.90;;;;;;4797830;29;20196;-94
2022/10/26 09:56:11;;;;;;;8.73;5.35;;;12.10;99.90;;;;;;4904875;29;20213;-90
2022/10/26 09:58:42;;;;;;;15.43;5.47;;;12.20;99.90;;;;;;4885831;29;20619;-90
2022/10/26 10:01:32;;;;;;;8.65;4.75;;;12.20;99.90;;;;;;4885838;29;20181;-88
2022/10/26 10:04:18;;;;;;;14.93;4.18;;;12.10;99.90;;;;;;4886642;29;20312;-90
2022/10/26 10:06:55;;;;;;;9.20;4.80;;;12.20;99.90;;;;;;4906342;29;20174;-92
2022/10/26 10:09:51;;;;;;;11.45;5.15;;;9.20;99.90;;;;;;4874149;29;20193;-87
2022/10/26 10:12:25;;;;;;;12.57;4.97;;;12.20;99.90;;;;;;4903773;29;20245;-91
2022/10/26 10:15:03;;;;;;;11.00;4.32;;;12.10;99.90;;;;;;4889628;29;20225;-90
2022/10/26 10:17:47;;;;;;;;;;;;;;;;;;;;;
2022/10/26 10:20:41;;;;;;;7.30;4.55;;;12.10;99.90;;;;;;4910344;29;20196;-91
2022/10/26 10:23:35;;;;;;;8.35;4.40;;;12.10;99.90;;;;;;4908627;29;20193;-91
2022/10/26 10:26:25;;;;;;;;;;;;;;;;;;;;;
2022/10/26 10:29:02;;;;;;;8.25;4.40;;;12.20;99.90;;;;;;4925012;29;20185;-90
2022/10/26 10:31:49;;;;;;;;;;;;;;;;;;;;;
2022/10/26 10:34:38;;;;;;;;;;;;;;;;;;;;;
2022/10/26 10:37:15;;;;;;;;;;;;;;;;;;;;;
2022/10/26 10:40:06;;;;;;;18.92;4.10;;;12.60;99.90;;;;;;4924494;29;20161;-89
2022/10/26 10:43:02;;;;;;;;;;;;;;;;;;;;;
2022/10/26 10:45:41;;;;;;;;;;;;;;;;;;;;;
2022/10/26 10:48:35;;;;;;;8.23;5.28;;;12.40;99.90;;;;;;4924175;29;20161;-90
2022/10/26 10:51:11;;;;;;;6.53;4.25;;;12.50;99.90;;;;;;4896072;29;20185;-92
2022/10/26 10:53:59;;;;;;;7.60;4.18;;;11.20;99.90;;;;;;4906765;29;20192;-89
2022/10/26 10:56:44;;;;;;;7.03;4.30;;;12.40;99.90;;;;;;4904525;29;20241;-91
2022/10/26 10:59:38;;;;;;;8.27;4.20;;;12.60;99.90;;;;;;4896775;29;20193;-91
2022/10/26 11:02:36;;;;;;;7.25;3.65;;;12.60;99.90;;;;;;4891753;29;20683;-89
2022/10/26 11:05:41;;;;;;;7.43;4.05;;;12.70;99.90;;;;;;4891260;29;20281;-89
2022/10/26 11:08:30;;;;;;;7.07;3.70;;;12.90;99.90;;;;;;4891994;29;20272;-89
2022/10/26 11:11:10;;;;;;;6.60;3.22;;;12.80;99.90;;;;;;4892760;29;20185;-90
2022/10/26 11:13:39;;;;;;;5.53;2.58;;;;;;;;;;4889391;29;20173;-88
2022/10/26 11:16:12;;;;;;;7.47;3.78;;;12.80;99.90;;;;;;4889478;29;20196;-88
2022/10/26 11:18:58;;;;;;;7.03;3.90;;;12.80;99.90;;;;;;4890372;29;20174;-88
2022/10/26 11:21:42;;;;;;;;;;;;;;;;;;;;;
2022/10/26 11:24:38;;;;;;;5.13;2.80;;;11.40;99.90;;;;;;4906640;29;20257;-87
2022/10/26 11:27:20;;;;;;;7.55;3.00;;;12.80;99.90;;;;;;4895477;29;20187;-88
2022/10/26 11:29:56;;;;;;;7.00;2.60;;;12.90;99.90;;;;;;4887824;29;20184;-88
2022/10/26 11:32:32;;;;;;;6.80;3.22;;;12.60;99.90;;;;;;4892069;29;20236;-88
2022/10/26 11:35:23;;;;;;;5.55;2.92;;;13.00;99.90;;;;;;4892998;29;20189;-88
2022/10/26 11:38:36;;;;;;;5.60;2.90;;;13.00;99.90;;;;;;4895588;29;20646;-89
2022/10/26 11:41:48;;;;;;;;;;;;;;;;;;;;;
2022/10/26 11:44:30;;;;;;;5.95;2.65;;;13.20;99.90;;;;;;4909946;29;20272;-89
2022/10/26 11:47:28;;;;;;;5.55;3.10;;;13.60;99.90;;;;;;4891384;29;20710;-89
2022/10/26 11:50:15;;;;;;;5.43;3.05;;;13.50;99.90;;;;;;4890508;29;20177;-90
2022/10/26 11:52:56;;;;;;;4.90;3.35;;;13.50;99.90;;;;;;4893478;29;20185;-90
2022/10/26 11:55:45;;;;;;;5.55;3.15;;;13.50;99.90;;;;;;4892526;29;20184;-90
2022/10/26 11:58:16;;;;;;;7.28;3.63;;;13.50;99.90;;;;;;4890722;29;20173;-90
2022/10/26 12:01:23;;;;;;;5.53;3.10;;;13.40;99.90;;;;;;4873614;29;20201;-91
2022/10/26 12:04:11;;;;;;;4.82;3.33;;;13.60;99.90;;;;;;4884616;29;20241;-91
2022/10/26 12:06:40;;;;;;;6.97;2.80;;;13.90;99.90;;;;;;4886876;29;20186;-90
2022/10/26 12:12:37;;;;;;;4.88;2.33;;;13.70;99.90;;;;;;4893365;29;20189;-89
2022/10/26 12:15:43;;;;;;;5.38;2.80;;;13.70;99.90;;;;;;4898139;29;20173;-88
2022/10/26 12:18:49;;;;;;;;;;;;;;;;;;;;;
2022/10/26 12:21:16;;;;;;;4.68;2.78;;;15.90;99.90;;;;;;4915295;29;20185;-88
2022/10/26 12:24:19;;;;;;;5.88;2.95;;;14.60;99.90;;;;;;4891265;29;20198;-86
2022/10/26 12:27:25;;;;;;;3.90;2.28;;;14.50;99.90;;;;;;4886095;29;20181;-88
2022/10/26 12:30:19;;;;;;;8.32;3.08;;;14.50;99.90;;;;;;4897845;29;20252;-91
2022/10/26 12:33:15;;;;;;;3.03;2.30;;;14.50;99.90;;;;;;4874858;29;20226;-92
2022/10/26 12:36:01;;;;;;;5.88;3.08;;;15.00;99.90;;;;;;4869507;29;20202;-90
2022/10/26 12:39:07;;;;;;;;;;;;;;;;;;;;;
2022/10/26 12:42:07;;;;;;;4.53;2.88;;;15.30;99.90;;;;;;4897246;29;20205;-92
2022/10/26 12:47:59;;;;;;;4.03;2.30;;;15.70;99.90;;;;;;5047140;23;20251;-90
2022/10/26 12:50:45;;;;;;;9.95;2.03;;;15.60;99.90;;;;;;4945649;29;20239;-91
2022/10/26 12:53:44;;;;;;;;;;;;;;;;;;;;;
2022/10/26 12:57:11;;;;;;;;;;;;;;;;;;;;;
2022/10/26 13:00:23;;;;;;;4.57;1.92;;;16.40;99.90;;;;;;4957135;29;20184;-91
2022/10/26 13:03:40;;;;;;;6.20;2.95;;;16.60;99.90;;;;;;4925478;29;20192;-90
2022/10/26 13:06:25;;;;;;;7.40;2.80;;;17.00;99.90;;;;;;4949740;29;20199;-90
2022/10/26 13:09:19;;;;;;;5.65;2.75;;;16.70;99.90;;;;;;4949482;29;20286;-90
2022/10/26 13:11:54;;;;;;;4.82;2.70;;;16.80;99.90;;;;;;4951915;29;20192;-90
2022/10/26 13:14:31;;;;;;;5.70;2.70;;;16.80;99.90;;;;;;4939627;29;20187;-89
2022/10/26 13:17:03;;;;;;;5.53;2.85;;;17.70;99.90;;;;;;4928440;29;20184;-91
2022/10/26 13:19:40;;;;;;;5.85;2.72;;;18.50;99.90;;;;;;4936115;29;20183;-90
2022/10/26 13:22:28;;;;;;;5.53;2.65;;;18.50;99.90;;;;;;4952310;29;20167;-90
2022/10/26 13:25:01;;;;;;;8.05;3.15;;;19.40;99.90;;;;;;4962931;29;20202;-91
2022/10/26 13:27:33;;;;;;;3.78;2.72;;;20.10;99.90;;;;;;4950314;29;20211;-91
2022/10/26 13:30:20;;;;;;;3.85;2.50;;;20.20;99.90;;;;;;4942634;29;20176;-88
2022/10/26 13:32:58;;;;;;;4.75;2.35;;;22.30;99.90;;;;;;4946884;29;20189;-88
2022/10/26 13:35:42;;;;;;;;;;;;;;;;;;;;;
2022/10/26 13:38:21;;;;;;;5.30;2.65;;;19.70;99.90;;;;;;4960002;29;20698;-89
2022/10/26 13:41:06;;;;;;;5.75;2.40;;;18.90;99.90;;;;;;4937788;29;20243;-88
2022/10/26 13:43:39;;;;;;;3.40;2.10;;;;;;;;;;4930979;29;20679;-89
2022/10/26 13:46:32;;;;;;;;;;;;;;;;;;;;;
2022/10/26 13:49:47;;;;;;;4.97;2.45;;;17.10;99.90;;;;;;4952391;29;20274;-89
2022/10/26 13:52:37;;;;;;;4.03;2.65;;;20.50;99.90;;;;;;4940919;29;20550;-90
2022/10/26 13:55:26;;;;;;;8.38;3.20;;;15.90;99.90;;;;;;4945457;29;20303;-89
2022/10/26 13:58:25;;;;;;;6.68;2.45;;;15.50;99.90;;;;;;4940842;29;20188;-93
2022/10/26 14:01:20;;;;;;;10.75;3.47;;;15.10;99.90;;;;;;4961941;29;20172;-94
2022/10/26 14:04:20;;;;;;;5.47;3.00;;;14.90;99.90;;;;;;4947644;28;20676;-92
2022/10/26 14:10:07;;;;;;;;;;;;;;;;;;;;;
2022/10/26 14:12:40;;;;;;;6.65;3.28;;;;;;;;;;4938306;29;20208;-92
2022/10/26 14:22:41;;;;;;;6.18;3.47;;;14.10;99.90;;;;;;4941978;29;20160;-93
2022/10/26 14:25:29;;;;;;;14.07;5.40;;;14.00;99.90;;;;;;4937671;29;20184;-93
2022/10/26 14:28:07;;;;;;;;;;;;;;;;;;;;;
2022/10/26 14:30:33;;;;;;;13.77;5.88;;;;;;;;;;4941751;29;20192;-94
2022/10/26 14:33:38;;;;;;;13.15;5.60;;;13.80;99.90;;;;;;4941815;29;20167;-94
2022/10/26 14:39:09;;;;;;;10.73;6.18;;;13.50;99.90;;;;;;4946362;29;20275;-95
2022/10/26 14:51:00;;;;;;;;;;;;;;;;;;;;;
2022/10/26 15:00:35;;;;;;;;;;;;;;;;;;;;;
2022/10/26 15:19:28;;;;;;;12.65;5.05;;;12.30;99.90;;;;;;4989346;23;20227;-95
2022/10/26 15:25:21;;;;;;;;;;;;;;;;;;;;;
2022/10/26 15:30:34;;;;;;;10.00;5.40;;;11.90;99.90;;;;;;5195247;23;20240;-94
2022/10/26 15:36:19;;;;;;;9.05;4.90;;;11.70;99.90;;;;;;5223010;23;20243;-96
2022/10/26 15:38:58;;;;;;;11.90;5.30;;;11.70;99.90;;;;;;4940220;29;20207;-95
2022/10/26 15:41:49;;;;;;;12.55;6.05;;;11.50;99.90;;;;;;5018550;23;20216;-96
2022/10/26 15:44:44;;;;;;;14.40;6.70;;;11.50;99.90;;;;;;4970586;28;20199;-96
2022/10/26 15:47:45;;;;;;;12.48;6.55;;;11.40;99.90;;;;;;5084198;23;20243;-96
2022/10/26 15:50:19;;;;;;;18.55;6.43;;;11.30;99.90;;;;;;4941648;29;20191;-96
2022/10/26 15:52:45;;;;;;;12.25;6.45;;;;;;;;;;4931431;29;20239;-94